createdAt,value
2018-06-01T00:01:24.116Z,52.01
2018-06-01T00:03:51.885Z,51.98
2018-06-01T00:06:19.885Z,52.11
2018-06-01T00:08:46.608Z,52.32
2018-06-01T00:11:15.423Z,52.29
2018-06-01T00:13:42.220Z,52.17
2018-06-01T00:16:08.776Z,52.27
2018-06-01T00:18:35.490Z,52.39
2018-06-01T00:21:02.756Z,52.37
2018-06-01T00:23:31.175Z,52.28
2018-06-01T00:25:57.826Z,52.52
2018-06-01T00:28:24.536Z,52.65
2018-06-01T00:30:51.153Z,52.72
2018-06-01T00:33:17.744Z,52.72
2018-06-01T00:35:44.420Z,52.80
2018-06-01T00:38:11.116Z,52.85
2018-06-01T00:40:37.928Z,52.82
2018-06-01T00:43:04.848Z,52.90
2018-06-01T00:45:32.217Z,52.94
2018-06-01T00:47:59.185Z,53.05
2018-06-01T00:50:25.990Z,53.02
2018-06-01T00:52:53.758Z,53.13
2018-06-01T00:55:25.479Z,53.14
2018-06-01T00:57:52.173Z,53.24
2018-06-01T01:00:20.341Z,53.40
2018-06-01T01:02:47.020Z,53.27
2018-06-01T01:05:13.865Z,53.41
2018-06-01T01:07:40.574Z,53.58
2018-06-01T01:10:07.383Z,53.78
2018-06-01T01:12:33.961Z,53.96
2018-06-01T01:15:00.673Z,54.06
2018-06-01T01:17:27.370Z,54.20
2018-06-01T01:19:53.994Z,54.33
2018-06-01T01:22:20.784Z,54.34
2018-06-01T01:24:47.517Z,54.29
2018-06-01T01:27:15.183Z,54.31
2018-06-01T01:29:43.077Z,54.55
2018-06-01T01:32:10.250Z,54.62
2018-06-01T01:34:36.911Z,54.68
2018-06-01T01:37:03.821Z,54.72
2018-06-01T01:39:30.712Z,54.64
2018-06-01T01:41:57.533Z,54.74
2018-06-01T01:44:24.270Z,54.79
2018-06-01T01:46:50.834Z,54.70
2018-06-01T01:49:17.571Z,54.59
2018-06-01T01:51:44.343Z,54.36
2018-06-01T01:54:11.137Z,54.42
2018-06-01T01:56:37.786Z,54.56
2018-06-01T01:59:04.529Z,54.65
2018-06-01T02:01:31.326Z,54.71
2018-06-01T02:03:58.121Z,54.60
2018-06-01T02:06:25.010Z,54.67
2018-06-01T02:08:51.815Z,54.33
2018-06-01T02:11:18.433Z,54.07
2018-06-01T02:13:45.198Z,54.02
2018-06-01T02:16:13.980Z,54.13
2018-06-01T02:18:40.610Z,54.34
2018-06-01T02:21:07.493Z,54.33
2018-06-01T02:23:34.221Z,54.39
2018-06-01T02:26:01.447Z,54.51
2018-06-01T02:28:28.399Z,54.52
2018-06-01T02:30:56.214Z,54.65
2018-06-01T02:33:23.557Z,54.81
2018-06-01T02:35:53.345Z,54.90
2018-06-01T02:38:20.097Z,54.87
2018-06-01T02:40:47.558Z,54.89
2018-06-01T02:43:14.208Z,55.19
2018-06-01T02:45:41.111Z,55.22
2018-06-01T02:48:07.916Z,55.03
2018-06-01T02:50:34.653Z,54.96
2018-06-01T02:53:02.326Z,55.19
2018-06-01T02:55:33.651Z,55.21
2018-06-01T02:58:07.311Z,55.16
2018-06-01T03:00:37.122Z,55.20
2018-06-01T03:03:07.078Z,55.00
2018-06-01T03:05:33.892Z,54.98
2018-06-01T03:08:00.685Z,55.02
2018-06-01T03:10:27.354Z,55.01
2018-06-01T03:12:54.150Z,54.78
2018-06-01T03:15:21.743Z,54.63
2018-06-01T03:17:48.679Z,54.93
2018-06-01T03:20:15.658Z,54.92
2018-06-01T03:22:42.577Z,54.99
2018-06-01T03:25:10.939Z,54.87
2018-06-01T03:27:42.311Z,54.77
2018-06-01T03:30:13.796Z,54.93
2018-06-01T03:32:41.101Z,55.23
2018-06-01T03:35:08.726Z,54.81
2018-06-01T03:37:36.617Z,54.84
2018-06-01T03:40:04.752Z,54.93
2018-06-01T03:42:34.670Z,55.18
2018-06-01T03:47:52.143Z,55.26
2018-06-01T03:50:21.340Z,55.25
2018-06-01T03:52:53.277Z,55.25
2018-06-01T03:55:20.139Z,55.67
2018-06-01T03:57:46.930Z,55.74
2018-06-01T04:00:13.744Z,55.54
2018-06-01T04:02:40.583Z,55.72
2018-06-01T04:05:07.290Z,55.47
2018-06-01T04:07:33.880Z,55.55
2018-06-01T04:10:00.429Z,55.74
2018-06-01T04:12:26.969Z,55.69
2018-06-01T04:14:53.761Z,55.58
2018-06-01T04:17:21.383Z,55.76
2018-06-01T04:19:48.277Z,55.98
2018-06-01T04:22:14.911Z,55.78
2018-06-01T04:24:43.308Z,55.34
2018-06-01T04:27:12.573Z,54.39
2018-06-01T04:29:39.541Z,54.27
2018-06-01T04:32:07.557Z,54.13
2018-06-01T04:34:34.966Z,53.84
2018-06-01T04:37:02.924Z,53.80
2018-06-01T04:39:29.957Z,53.88
2018-06-01T04:44:29.906Z,53.48
2018-06-01T04:46:57.498Z,54.14
2018-06-01T04:49:25.341Z,53.43
2018-06-01T04:51:52.598Z,53.62
2018-06-01T04:54:19.408Z,53.60
2018-06-01T04:56:46.682Z,53.89
2018-06-01T04:59:13.353Z,53.42
2018-06-01T05:01:40.006Z,52.95
2018-06-01T05:04:07.768Z,52.69
2018-06-01T05:06:34.498Z,52.42
2018-06-01T05:09:01.643Z,52.40
2018-06-01T05:11:28.637Z,52.10
2018-06-01T05:13:55.589Z,52.19
2018-06-01T05:16:22.325Z,51.95
2018-06-01T05:18:49.634Z,50.93
2018-06-01T05:21:16.441Z,49.87
2018-06-01T05:23:43.557Z,49.35
2018-06-01T05:26:10.392Z,48.18
2018-06-01T05:28:37.065Z,47.33
2018-06-01T05:31:03.873Z,46.44
2018-06-01T05:33:30.513Z,46.21
2018-06-01T05:35:57.450Z,45.99
2018-06-01T05:38:24.237Z,45.26
2018-06-01T05:40:50.874Z,44.85
2018-06-01T05:43:17.583Z,44.54
2018-06-01T05:45:44.181Z,44.11
2018-06-01T05:48:10.797Z,44.11
2018-06-01T05:50:37.586Z,43.92
2018-06-01T05:53:04.147Z,43.94
2018-06-01T05:55:30.841Z,43.76
2018-06-01T05:57:57.469Z,43.89
2018-06-01T06:00:24.610Z,44.08
2018-06-01T06:02:51.285Z,44.58
2018-06-01T06:05:18.161Z,44.11
2018-06-01T06:07:44.908Z,44.07
2018-06-01T06:10:11.826Z,44.16
2018-06-01T06:12:38.497Z,44.00
2018-06-01T06:15:05.164Z,44.17
2018-06-01T06:17:31.829Z,43.94
2018-06-01T06:19:58.429Z,43.32
2018-06-01T06:22:25.090Z,43.25
2018-06-01T06:24:54.125Z,43.39
2018-06-01T06:27:20.978Z,43.53
2018-06-01T06:29:47.685Z,44.17
2018-06-01T06:32:14.410Z,44.27
2018-06-01T06:34:41.013Z,44.21
2018-06-01T06:37:07.589Z,44.48
2018-06-01T06:39:34.381Z,44.28
2018-06-01T06:42:01.034Z,43.93
2018-06-01T06:44:27.793Z,43.48
2018-06-01T06:46:54.730Z,43.75
2018-06-01T06:49:22.383Z,43.65
2018-06-01T06:51:49.609Z,42.85
2018-06-01T06:54:16.762Z,42.51
2018-06-01T06:56:43.652Z,42.49
2018-06-01T06:59:10.640Z,42.73
2018-06-01T07:01:37.716Z,42.53
2018-06-01T07:04:04.858Z,42.44
2018-06-01T07:06:31.659Z,42.50
2018-06-01T07:08:58.466Z,42.16
2018-06-01T07:11:25.546Z,42.21
2018-06-01T07:13:52.410Z,42.04
2018-06-01T07:16:19.671Z,41.89
2018-06-01T07:18:46.421Z,41.32
2018-06-01T07:21:13.850Z,41.54
2018-06-01T07:23:40.598Z,42.00
2018-06-01T07:26:07.719Z,42.01
2018-06-01T07:28:34.461Z,41.99
2018-06-01T07:31:01.379Z,41.77
2018-06-01T07:33:28.378Z,41.40
2018-06-01T07:35:55.187Z,41.57
2018-06-01T07:38:22.758Z,41.63
2018-06-01T07:40:49.718Z,41.22
2018-06-01T07:43:16.512Z,40.81
2018-06-01T07:45:43.110Z,40.49
2018-06-01T07:48:09.730Z,40.20
2018-06-01T07:50:36.452Z,40.18
2018-06-01T07:53:03.855Z,40.41
2018-06-01T07:55:30.484Z,40.55
2018-06-01T07:57:57.314Z,39.86
2018-06-01T08:00:23.789Z,39.53
2018-06-01T08:02:50.467Z,39.97
2018-06-01T08:05:17.101Z,39.75
2018-06-01T08:07:43.710Z,38.53
2018-06-01T08:10:10.342Z,39.09
2018-06-01T08:12:37.113Z,38.94
2018-06-01T08:15:03.615Z,38.73
2018-06-01T08:17:30.125Z,38.10
2018-06-01T08:19:56.822Z,37.67
2018-06-01T08:22:23.385Z,37.85
2018-06-01T08:24:50.034Z,37.43
2018-06-01T08:27:16.521Z,36.17
2018-06-01T08:29:44.190Z,36.05
2018-06-01T08:32:10.876Z,35.78
2018-06-01T08:34:37.676Z,35.11
2018-06-01T08:37:04.197Z,34.15
2018-06-01T08:39:31.009Z,33.99
2018-06-01T08:41:57.609Z,34.47
2018-06-01T08:44:24.125Z,34.16
2018-06-01T08:46:51.055Z,32.69
2018-06-01T08:49:17.643Z,32.98
2018-06-01T08:51:44.331Z,32.78
2018-06-01T08:54:10.966Z,32.34
2018-06-01T08:56:37.694Z,31.77
2018-06-01T08:59:04.527Z,30.63
2018-06-01T09:01:31.333Z,30.86
2018-06-01T09:26:19.005Z,29.72
2018-06-01T09:28:45.580Z,29.70
2018-06-01T09:31:12.228Z,30.19
2018-06-01T09:33:39.108Z,29.04
2018-06-01T09:36:06.063Z,29.48
2018-06-01T09:38:32.860Z,29.75
2018-06-01T09:40:59.551Z,29.88
2018-06-01T09:43:26.270Z,29.54
2018-06-01T09:45:52.895Z,30.00
2018-06-01T09:48:19.770Z,28.79
2018-06-01T09:50:46.509Z,28.25
2018-06-01T09:53:13.079Z,27.69
2018-06-01T09:55:39.948Z,27.60
2018-06-01T09:58:07.037Z,27.64
2018-06-01T10:00:39.781Z,27.32
2018-06-01T10:03:06.383Z,27.63
2018-06-01T10:05:33.004Z,27.58
2018-06-01T10:07:59.934Z,27.89
2018-06-01T10:10:32.523Z,27.51
2018-06-01T10:12:59.288Z,27.08
2018-06-01T10:15:25.820Z,27.36
2018-06-01T10:17:52.569Z,27.32
2018-06-01T10:20:19.486Z,27.21
2018-06-01T10:22:46.284Z,27.88
2018-06-01T10:25:13.112Z,28.43
2018-06-01T10:27:39.728Z,28.06
2018-06-01T10:30:06.280Z,28.79
2018-06-01T10:32:32.969Z,27.86
2018-06-01T10:34:59.575Z,27.89
2018-06-01T10:37:28.447Z,26.64
2018-06-01T10:39:55.526Z,27.14
2018-06-01T10:42:22.277Z,27.08
2018-06-01T10:44:48.962Z,27.12
2018-06-01T10:47:15.639Z,27.94
2018-06-01T10:49:42.813Z,28.25
2018-06-01T10:52:09.713Z,28.07
2018-06-01T10:54:36.265Z,26.93
2018-06-01T10:57:03.181Z,27.37
2018-06-01T10:59:29.936Z,27.97
2018-06-01T11:03:49.040Z,27.79
2018-06-01T11:06:15.847Z,27.61
2018-06-01T11:08:42.665Z,28.10
2018-06-01T11:11:09.232Z,28.02
2018-06-01T11:13:36.041Z,28.46
2018-06-01T11:16:02.679Z,28.98
2018-06-01T11:18:29.395Z,27.64
2018-06-01T11:20:56.176Z,28.26
2018-06-01T11:23:22.801Z,28.31
2018-06-01T11:25:49.481Z,28.48
2018-06-01T11:28:16.434Z,28.36
2018-06-01T11:30:43.240Z,28.66
2018-06-01T11:33:09.951Z,28.94
2018-06-01T11:35:36.753Z,29.17
2018-06-01T11:38:03.450Z,29.05
2018-06-01T11:40:30.178Z,29.01
2018-06-01T11:42:56.976Z,29.00
2018-06-01T11:45:23.615Z,29.19
2018-06-01T11:47:50.369Z,29.21
2018-06-01T11:50:17.097Z,28.82
2018-06-01T11:52:51.106Z,28.90
2018-06-01T11:55:17.744Z,28.68
2018-06-01T11:57:44.415Z,29.31
2018-06-01T12:00:11.016Z,29.03
2018-06-01T12:02:37.960Z,28.77
2018-06-01T12:05:04.649Z,28.50
2018-06-01T12:07:31.410Z,28.74
2018-06-01T12:09:57.948Z,28.56
2018-06-01T12:12:24.706Z,28.86
2018-06-01T12:14:51.330Z,28.41
2018-06-01T12:17:18.014Z,28.45
2018-06-01T12:19:44.544Z,28.52
2018-06-01T12:22:11.373Z,28.09
2018-06-01T12:24:38.320Z,28.07
2018-06-01T12:27:05.074Z,28.27
2018-06-01T12:29:32.063Z,28.25
2018-06-01T12:31:58.819Z,28.19
2018-06-01T12:34:25.583Z,27.94
2018-06-01T12:36:52.646Z,27.88
2018-06-01T12:39:19.419Z,27.94
2018-06-01T12:41:46.847Z,28.26
2018-06-01T12:44:13.664Z,28.03
2018-06-01T12:46:40.353Z,28.27
2018-06-01T12:49:07.384Z,28.49
2018-06-01T12:51:34.061Z,28.28
2018-06-01T12:54:00.881Z,28.49
2018-06-01T12:56:27.811Z,29.18
2018-06-01T12:58:54.965Z,29.13
2018-06-01T13:01:22.069Z,28.77
2018-06-01T13:03:49.032Z,28.81
2018-06-01T13:06:15.862Z,28.82
2018-06-01T13:08:42.773Z,28.53
2018-06-01T13:11:09.392Z,28.46
2018-06-01T13:13:35.887Z,28.50
2018-06-01T13:16:02.501Z,28.74
2018-06-01T13:18:29.009Z,28.67
2018-06-01T13:20:55.595Z,28.85
2018-06-01T13:23:22.227Z,28.41
2018-06-01T13:25:48.736Z,28.64
2018-06-01T13:28:15.407Z,28.80
2018-06-01T13:30:42.160Z,29.78
2018-06-01T13:33:08.920Z,30.22
2018-06-01T13:35:35.601Z,30.29
2018-06-01T13:38:02.270Z,29.99
2018-06-01T13:40:29.103Z,30.48
2018-06-01T13:42:55.688Z,30.25
2018-06-01T13:45:22.370Z,30.60
2018-06-01T13:47:49.259Z,30.48
2018-06-01T13:50:15.885Z,30.69
2018-06-01T13:52:42.954Z,30.81
2018-06-01T13:55:09.733Z,31.07
2018-06-01T13:57:36.349Z,31.40
2018-06-01T14:09:08.673Z,32.31
2018-06-01T14:11:35.282Z,32.64
2018-06-01T14:14:02.182Z,32.79
2018-06-01T14:16:28.845Z,33.15
2018-06-01T14:18:55.537Z,33.26
2018-06-01T14:21:22.561Z,33.29
2018-06-01T14:23:49.535Z,33.47
2018-06-01T14:26:16.353Z,33.94
2018-06-01T14:31:24.347Z,34.07
2018-06-01T14:33:51.069Z,33.99
2018-06-01T14:36:17.713Z,33.79
2018-06-01T14:38:44.661Z,34.38
2018-06-01T14:41:11.741Z,34.33
2018-06-01T14:43:38.460Z,34.48
2018-06-01T14:46:05.267Z,34.59
2018-06-01T14:48:32.067Z,34.62
2018-06-01T14:50:58.910Z,34.77
2018-06-01T14:53:26.001Z,34.71
2018-06-01T14:55:52.545Z,34.94
2018-06-01T14:58:19.104Z,35.18
2018-06-01T15:00:45.768Z,35.26
2018-06-01T15:03:12.403Z,35.04
2018-06-01T15:05:38.974Z,34.73
2018-06-01T15:08:05.561Z,34.11
2018-06-01T15:10:32.069Z,34.14
2018-06-01T15:12:58.903Z,33.49
2018-06-01T15:15:25.673Z,33.42
2018-06-01T15:17:52.417Z,33.37
2018-06-01T15:20:19.004Z,33.65
2018-06-01T15:22:45.642Z,33.75
2018-06-01T15:25:12.409Z,33.61
2018-06-01T15:27:39.081Z,33.43
2018-06-01T15:30:05.799Z,33.52
2018-06-01T15:32:33.821Z,33.60
2018-06-01T15:35:01.042Z,33.58
2018-06-01T15:37:27.648Z,33.36
2018-06-01T15:39:54.538Z,33.58
2018-06-01T15:42:21.244Z,33.50
2018-06-01T15:44:47.945Z,33.92
2018-06-01T15:47:18.095Z,33.95
2018-06-01T15:49:45.188Z,33.90
2018-06-01T15:52:15.547Z,34.03
2018-06-01T15:54:43.061Z,34.18
2018-06-01T15:57:09.983Z,34.35
2018-06-01T15:59:36.822Z,34.28
2018-06-01T16:02:05.392Z,34.41
2018-06-01T16:04:32.273Z,34.60
2018-06-01T16:06:59.154Z,34.46
2018-06-01T16:09:25.831Z,34.54
2018-06-01T16:11:52.505Z,34.70
2018-06-01T16:14:19.725Z,34.97
2018-06-01T16:16:47.040Z,34.87
2018-06-01T16:19:13.916Z,34.79
2018-06-01T16:21:40.801Z,35.09
2018-06-01T16:24:07.432Z,35.13
2018-06-01T16:26:34.011Z,35.12
2018-06-01T16:29:00.661Z,35.25
2018-06-01T16:31:27.412Z,35.34
2018-06-01T16:33:54.241Z,35.51
2018-06-01T16:36:21.077Z,35.19
2018-06-01T16:38:47.744Z,35.46
2018-06-01T16:41:15.271Z,35.32
2018-06-01T16:43:41.841Z,35.59
2018-06-01T16:46:08.416Z,35.73
2018-06-01T16:48:34.928Z,35.69
2018-06-01T16:51:01.505Z,35.67
2018-06-01T16:53:28.228Z,35.68
2018-06-01T16:55:54.891Z,35.72
2018-06-01T16:58:21.733Z,35.89
2018-06-01T17:00:48.245Z,36.10
2018-06-01T17:03:14.866Z,36.24
2018-06-01T17:05:41.665Z,36.43
2018-06-01T17:08:08.655Z,36.59
2018-06-01T17:10:35.160Z,36.81
2018-06-01T17:13:01.854Z,37.03
2018-06-01T17:15:29.771Z,37.24
2018-06-01T17:20:48.645Z,37.08
2018-06-01T17:23:15.403Z,37.28
2018-06-01T17:25:42.159Z,37.31
2018-06-01T17:28:08.740Z,37.46
2018-06-01T17:30:35.389Z,37.45
2018-06-01T17:33:01.917Z,37.70
2018-06-01T17:35:28.660Z,37.97
2018-06-01T17:37:55.340Z,37.94
2018-06-01T17:40:22.012Z,38.14
2018-06-01T17:42:48.613Z,38.10
2018-06-01T17:45:15.248Z,38.16
2018-06-01T17:47:41.745Z,38.11
2018-06-01T17:50:08.367Z,38.33
2018-06-01T17:52:35.058Z,38.47
2018-06-01T17:55:01.749Z,38.43
2018-06-01T17:57:28.350Z,38.51
2018-06-01T17:59:55.045Z,38.54
2018-06-01T18:02:21.789Z,38.61
2018-06-01T18:04:50.233Z,38.80
2018-06-01T18:07:17.108Z,38.88
2018-06-01T18:09:43.656Z,39.02
2018-06-01T18:12:10.314Z,39.17
2018-06-01T18:14:37.113Z,39.33
2018-06-01T18:17:03.752Z,39.39
2018-06-01T18:19:30.440Z,39.49
2018-06-01T18:21:57.525Z,39.71
2018-06-01T18:24:24.130Z,40.02
2018-06-01T18:26:50.627Z,39.93
2018-06-01T18:29:17.406Z,39.83
2018-06-01T18:31:44.187Z,39.87
2018-06-01T18:34:10.738Z,39.87
2018-06-01T18:36:37.263Z,40.27
2018-06-01T18:39:04.878Z,40.48
2018-06-01T18:41:31.480Z,40.41
2018-06-01T18:43:58.651Z,40.43
2018-06-01T18:46:26.078Z,40.50
2018-06-01T18:48:52.677Z,40.56
2018-06-01T18:51:19.213Z,40.48
2018-06-01T18:53:45.915Z,40.50
2018-06-01T18:56:12.531Z,40.67
2018-06-01T18:58:39.213Z,40.64
2018-06-01T19:01:05.999Z,40.76
2018-06-01T19:03:32.520Z,40.98
2018-06-01T19:05:59.529Z,41.11
2018-06-01T19:08:26.026Z,41.35
2018-06-01T19:10:52.644Z,41.66
2018-06-01T19:13:19.196Z,41.84
2018-06-01T19:15:46.084Z,41.85
2018-06-01T19:18:12.549Z,42.47
2018-06-01T19:20:39.083Z,42.77
2018-06-01T19:23:05.562Z,42.83
2018-06-01T19:25:32.225Z,42.93
2018-06-01T19:27:58.833Z,43.25
2018-06-01T19:30:25.447Z,43.56
2018-06-01T19:32:51.970Z,43.79
2018-06-01T19:35:18.516Z,44.16
2018-06-01T19:37:45.101Z,44.53
2018-06-01T19:40:11.736Z,44.81
2018-06-01T19:42:38.616Z,44.96
2018-06-01T19:45:05.376Z,45.08
2018-06-01T19:47:32.111Z,45.19
2018-06-01T19:49:58.655Z,45.19
2018-06-01T19:52:25.204Z,45.23
2018-06-01T19:54:51.794Z,45.43
2018-06-01T19:57:18.777Z,45.65
2018-06-01T19:59:45.697Z,45.80
2018-06-01T20:02:12.358Z,45.98
2018-06-01T20:04:38.908Z,46.11
2018-06-01T20:07:05.444Z,46.28
2018-06-01T20:09:32.218Z,46.49
2018-06-01T20:11:58.867Z,46.65
2018-06-01T20:14:25.557Z,46.89
2018-06-01T20:16:52.137Z,47.09
2018-06-01T20:19:18.710Z,47.33
2018-06-01T20:21:45.320Z,47.48
2018-06-01T20:24:11.896Z,47.72
2018-06-01T20:26:38.491Z,47.87
2018-06-01T20:29:05.072Z,48.06
2018-06-01T20:31:31.653Z,48.31
2018-06-01T20:33:58.223Z,48.50
2018-06-01T20:36:24.748Z,48.50
2018-06-01T20:38:51.362Z,48.52
2018-06-01T20:41:17.961Z,48.56
2018-06-01T20:43:44.476Z,48.62
2018-06-01T20:46:12.364Z,48.75
2018-06-01T20:48:53.852Z,48.80
2018-06-01T20:51:20.457Z,49.03
2018-06-01T20:53:46.972Z,49.17
2018-06-01T20:56:13.588Z,49.27
2018-06-01T20:58:40.058Z,49.37
2018-06-01T21:01:06.711Z,49.50
2018-06-01T21:03:33.470Z,49.70
2018-06-01T21:06:00.122Z,49.91
2018-06-01T21:08:26.664Z,50.12
2018-06-01T21:10:53.281Z,50.16
2018-06-01T21:16:12.019Z,50.18
2018-06-01T21:18:38.737Z,50.13
2018-06-01T21:24:09.350Z,50.04
2018-06-01T21:26:36.045Z,49.99
2018-06-01T21:29:02.592Z,49.88
2018-06-01T21:31:29.201Z,49.71
2018-06-01T21:33:55.929Z,49.63
2018-06-01T21:36:22.534Z,49.45
2018-06-01T21:38:49.298Z,49.31
2018-06-01T21:41:15.927Z,49.26
2018-06-01T21:43:42.421Z,49.30
2018-06-01T21:46:09.016Z,49.25
2018-06-01T21:48:35.637Z,49.42
2018-06-01T21:51:02.237Z,49.53
2018-06-01T21:53:28.829Z,49.70
2018-06-01T21:55:55.574Z,49.89
2018-06-01T21:58:22.229Z,49.98
2018-06-01T22:00:48.736Z,50.00
2018-06-01T22:03:15.369Z,50.06
2018-06-01T22:05:41.826Z,50.26
2018-06-01T22:08:08.496Z,50.44
2018-06-01T22:10:35.398Z,50.54
2018-06-01T22:13:01.949Z,50.86
2018-06-01T22:15:28.560Z,51.05
2018-06-01T22:17:55.134Z,51.05
2018-06-01T22:20:21.802Z,51.15
2018-06-01T22:22:48.388Z,51.01
2018-06-01T22:25:15.004Z,51.05
2018-06-01T22:27:41.671Z,51.18
2018-06-01T22:30:08.373Z,51.26
2018-06-01T22:32:34.910Z,51.48
2018-06-01T22:35:01.481Z,51.56
2018-06-01T22:37:27.997Z,51.58
2018-06-01T22:39:54.593Z,51.69
2018-06-01T22:42:21.119Z,51.61
2018-06-01T22:44:47.636Z,51.37
2018-06-01T22:47:14.264Z,51.52
2018-06-01T22:49:40.913Z,51.54
2018-06-01T22:52:07.461Z,51.72
2018-06-01T22:57:07.383Z,51.83
2018-06-01T22:59:33.954Z,51.77
2018-06-01T23:02:00.561Z,51.94
2018-06-01T23:04:27.248Z,52.28
2018-06-01T23:06:53.868Z,52.53
2018-06-01T23:09:20.487Z,53.06
2018-06-01T23:11:47.167Z,52.95
2018-06-01T23:14:13.898Z,52.94
2018-06-01T23:16:40.432Z,52.68
2018-06-01T23:19:06.927Z,52.62
2018-06-01T23:21:33.565Z,52.57
2018-06-01T23:24:00.148Z,52.53
2018-06-01T23:26:26.801Z,52.50
2018-06-01T23:29:00.280Z,52.54
2018-06-01T23:31:26.876Z,52.45
2018-06-01T23:33:53.578Z,52.52
2018-06-01T23:36:20.046Z,52.44
2018-06-01T23:38:46.639Z,52.30
2018-06-01T23:41:13.232Z,52.44
2018-06-01T23:43:39.707Z,51.69
2018-06-01T23:46:06.369Z,51.45
2018-06-01T23:48:33.029Z,51.06
2018-06-01T23:50:59.659Z,51.08
2018-06-01T23:53:26.269Z,50.97
2018-06-01T23:55:52.831Z,50.98
2018-06-01T23:58:19.317Z,50.97
